sensor_id;sensor_type;location;lat;lon;timestamp;temperature;humidity
40660;DHT22;26753;45.544;9.232;2023-05-21T00:00:48;16.30;99.90
40660;DHT22;26753;45.544;9.232;2023-05-21T00:03:31;16.30;99.90
40660;DHT22;26753;45.544;9.232;2023-05-21T00:06:11;16.30;99.90
40660;DHT22;26753;45.544;9.232;2023-05-21T00:08:42;16.20;99.90
40660;DHT22;26753;45.544;9.232;2023-05-21T00:11:10;16.20;99.90
40660;DHT22;26753;45.544;9.232;2023-05-21T00:13:39;16.30;99.90
40660;DHT22;26753;45.544;9.232;2023-05-21T00:16:10;16.30;99.90
40660;DHT22;26753;45.544;9.232;2023-05-21T00:18:36;16.20;99.90
40660;DHT22;26753;45.544;9.232;2023-05-21T00:21:06;16.30;99.90
40660;DHT22;26753;45.544;9.232;2023-05-21T00:23:44;16.20;99.90
40660;DHT22;26753;45.544;9.232;2023-05-21T00:26:12;16.20;99.90
40660;DHT22;26753;45.544;9.232;2023-05-21T00:28:59;16.20;99.90
40660;DHT22;26753;45.544;9.232;2023-05-21T00:32:19;16.20;99.90
40660;DHT22;26753;45.544;9.232;2023-05-21T00:44:12;16.20;99.90
40660;DHT22;26753;45.544;9.232;2023-05-21T00:50:40;16.10;99.90
40660;DHT22;26753;45.544;9.232;2023-05-21T00:52:43;16.10;99.90
40660;DHT22;26753;45.544;9.232;2023-05-21T00:55:13;16.10;99.90
40660;DHT22;26753;45.544;9.232;2023-05-21T00:57:51;16.10;99.90
40660;DHT22;26753;45.544;9.232;2023-05-21T01:00:20;16.00;99.90
40660;DHT22;26753;45.544;9.232;2023-05-21T01:02:50;16.10;99.90
40660;DHT22;26753;45.544;9.232;2023-05-21T01:08:39;16.10;99.90
40660;DHT22;26753;45.544;9.232;2023-05-21T01:14:22;16.10;99.90
40660;DHT22;26753;45.544;9.232;2023-05-21T01:16:54;16.10;99.90
40660;DHT22;26753;45.544;9.232;2023-05-21T01:19:37;16.10;99.90
40660;DHT22;26753;45.544;9.232;2023-05-21T01:22:22;16.10;99.90
40660;DHT22;26753;45.544;9.232;2023-05-21T01:31:36;16.10;99.90
40660;DHT22;26753;45.544;9.232;2023-05-21T01:34:30;16.10;99.90
40660;DHT22;26753;45.544;9.232;2023-05-21T01:43:40;16.00;99.90
40660;DHT22;26753;45.544;9.232;2023-05-21T01:46:29;16.00;99.90
40660;DHT22;26753;45.544;9.232;2023-05-21T02:01:15;16.00;99.90
40660;DHT22;26753;45.544;9.232;2023-05-21T02:04:03;16.10;99.90
40660;DHT22;26753;45.544;9.232;2023-05-21T02:06:29;16.00;99.90
40660;DHT22;26753;45.544;9.232;2023-05-21T02:09:00;16.00;99.90
40660;DHT22;26753;45.544;9.232;2023-05-21T02:11:27;16.10;99.90
40660;DHT22;26753;45.544;9.232;2023-05-21T02:13:57;16.20;99.90
40660;DHT22;26753;45.544;9.232;2023-05-21T02:16:34;16.10;99.90
40660;DHT22;26753;45.544;9.232;2023-05-21T02:19:00;16.10;99.90
40660;DHT22;26753;45.544;9.232;2023-05-21T02:21:28;16.20;99.90
40660;DHT22;26753;45.544;9.232;2023-05-21T02:24:02;16.20;99.90
40660;DHT22;26753;45.544;9.232;2023-05-21T02:26:28;16.10;99.90
40660;DHT22;26753;45.544;9.232;2023-05-21T02:29:09;16.20;99.90
40660;DHT22;26753;45.544;9.232;2023-05-21T02:32:00;16.10;99.90
40660;DHT22;26753;45.544;9.232;2023-05-21T02:34:46;16.10;99.90
40660;DHT22;26753;45.544;9.232;2023-05-21T02:49:32;16.10;99.90
40660;DHT22;26753;45.544;9.232;2023-05-21T02:52:00;16.20;99.90
40660;DHT22;26753;45.544;9.232;2023-05-21T02:54:29;16.20;99.90
40660;DHT22;26753;45.544;9.232;2023-05-21T02:56:54;16.30;99.90
40660;DHT22;26753;45.544;9.232;2023-05-21T02:59:26;16.30;99.90
40660;DHT22;26753;45.544;9.232;2023-05-21T03:02:04;16.30;99.90
40660;DHT22;26753;45.544;9.232;2023-05-21T03:04:29;16.30;99.90
40660;DHT22;26753;45.544;9.232;2023-05-21T03:06:55;16.30;99.90
40660;DHT22;26753;45.544;9.232;2023-05-21T03:09:21;16.30;99.90
40660;DHT22;26753;45.544;9.232;2023-05-21T03:11:47;16.40;99.90
40660;DHT22;26753;45.544;9.232;2023-05-21T03:14:13;16.40;99.90
40660;DHT22;26753;45.544;9.232;2023-05-21T03:16:38;16.40;99.90
40660;DHT22;26753;45.544;9.232;2023-05-21T03:19:09;16.40;99.90
40660;DHT22;26753;45.544;9.232;2023-05-21T03:21:35;16.40;99.90
40660;DHT22;26753;45.544;9.232;2023-05-21T03:24:02;16.50;99.90
40660;DHT22;26753;45.544;9.232;2023-05-21T03:26:27;16.40;99.90
40660;DHT22;26753;45.544;9.232;2023-05-21T03:28:54;16.40;99.90
40660;DHT22;26753;45.544;9.232;2023-05-21T03:31:20;16.40;99.90
40660;DHT22;26753;45.544;9.232;2023-05-21T03:33:46;16.20;99.90
40660;DHT22;26753;45.544;9.232;2023-05-21T03:36:11;16.20;99.90
40660;DHT22;26753;45.544;9.232;2023-05-21T03:38:37;16.30;99.90
40660;DHT22;26753;45.544;9.232;2023-05-21T03:41:02;16.10;99.90
40660;DHT22;26753;45.544;9.232;2023-05-21T03:43:28;16.20;99.90
40660;DHT22;26753;45.544;9.232;2023-05-21T03:45:54;16.10;99.90
40660;DHT22;26753;45.544;9.232;2023-05-21T03:48:20;16.10;99.90
40660;DHT22;26753;45.544;9.232;2023-05-21T03:50:46;16.10;99.90
40660;DHT22;26753;45.544;9.232;2023-05-21T03:53:11;16.00;99.90
40660;DHT22;26753;45.544;9.232;2023-05-21T03:55:38;16.00;99.90
40660;DHT22;26753;45.544;9.232;2023-05-21T03:58:03;16.00;99.90
40660;DHT22;26753;45.544;9.232;2023-05-21T04:00:29;16.00;99.90
40660;DHT22;26753;45.544;9.232;2023-05-21T04:02:57;15.90;99.90
40660;DHT22;26753;45.544;9.232;2023-05-21T04:05:22;15.90;99.90
40660;DHT22;26753;45.544;9.232;2023-05-21T04:07:48;16.00;99.90
40660;DHT22;26753;45.544;9.232;2023-05-21T04:10:14;15.90;99.90
40660;DHT22;26753;45.544;9.232;2023-05-21T04:12:39;16.90;99.90
40660;DHT22;26753;45.544;9.232;2023-05-21T04:15:05;15.90;99.90
40660;DHT22;26753;45.544;9.232;2023-05-21T04:17:31;15.90;99.90
40660;DHT22;26753;45.544;9.232;2023-05-21T04:19:58;16.00;99.90
40660;DHT22;26753;45.544;9.232;2023-05-21T04:22:24;16.00;99.90
40660;DHT22;26753;45.544;9.232;2023-05-21T04:24:53;16.00;99.90
40660;DHT22;26753;45.544;9.232;2023-05-21T04:27:21;16.10;99.90
40660;DHT22;26753;45.544;9.232;2023-05-21T04:29:48;16.00;99.90
40660;DHT22;26753;45.544;9.232;2023-05-21T04:32:14;16.00;99.90
40660;DHT22;26753;45.544;9.232;2023-05-21T04:34:42;16.00;99.90
40660;DHT22;26753;45.544;9.232;2023-05-21T04:37:08;16.00;99.90
40660;DHT22;26753;45.544;9.232;2023-05-21T04:39:34;16.10;99.90
40660;DHT22;26753;45.544;9.232;2023-05-21T04:42:00;16.10;99.90
40660;DHT22;26753;45.544;9.232;2023-05-21T04:44:30;16.00;99.90
40660;DHT22;26753;45.544;9.232;2023-05-21T04:46:55;16.00;99.90
40660;DHT22;26753;45.544;9.232;2023-05-21T04:49:24;16.00;99.90
40660;DHT22;26753;45.544;9.232;2023-05-21T04:51:50;16.00;99.90
40660;DHT22;26753;45.544;9.232;2023-05-21T04:54:15;16.00;99.90
40660;DHT22;26753;45.544;9.232;2023-05-21T04:56:46;16.10;99.90
40660;DHT22;26753;45.544;9.232;2023-05-21T04:59:17;16.10;99.90
40660;DHT22;26753;45.544;9.232;2023-05-21T05:01:51;16.10;99.90
40660;DHT22;26753;45.544;9.232;2023-05-21T05:04:17;16.10;99.90
40660;DHT22;26753;45.544;9.232;2023-05-21T05:06:43;16.20;99.90
40660;DHT22;26753;45.544;9.232;2023-05-21T05:09:08;16.20;99.90
40660;DHT22;26753;45.544;9.232;2023-05-21T05:11:35;16.20;99.90
40660;DHT22;26753;45.544;9.232;2023-05-21T05:14:00;16.20;99.90
40660;DHT22;26753;45.544;9.232;2023-05-21T05:16:35;16.30;99.90
40660;DHT22;26753;45.544;9.232;2023-05-21T05:19:07;16.30;99.90
40660;DHT22;26753;45.544;9.232;2023-05-21T05:21:32;16.30;99.90
40660;DHT22;26753;45.544;9.232;2023-05-21T05:23:58;16.40;99.90
40660;DHT22;26753;45.544;9.232;2023-05-21T05:26:25;16.30;99.90
40660;DHT22;26753;45.544;9.232;2023-05-21T05:28:50;16.50;99.90
40660;DHT22;26753;45.544;9.232;2023-05-21T05:31:16;16.50;99.90
40660;DHT22;26753;45.544;9.232;2023-05-21T05:33:48;16.50;99.90
40660;DHT22;26753;45.544;9.232;2023-05-21T05:36:16;16.70;99.90
40660;DHT22;26753;45.544;9.232;2023-05-21T05:38:45;16.70;99.90
40660;DHT22;26753;45.544;9.232;2023-05-21T05:41:11;16.70;99.90
40660;DHT22;26753;45.544;9.232;2023-05-21T05:43:36;17.20;99.90
40660;DHT22;26753;45.544;9.232;2023-05-21T05:46:02;16.80;99.90
40660;DHT22;26753;45.544;9.232;2023-05-21T05:48:27;16.90;99.90
40660;DHT22;26753;45.544;9.232;2023-05-21T05:50:56;16.90;99.90
40660;DHT22;26753;45.544;9.232;2023-05-21T05:53:22;17.00;99.90
40660;DHT22;26753;45.544;9.232;2023-05-21T05:55:48;17.10;99.90
40660;DHT22;26753;45.544;9.232;2023-05-21T05:58:14;17.10;99.90
40660;DHT22;26753;45.544;9.232;2023-05-21T06:00:39;17.30;99.90
40660;DHT22;26753;45.544;9.232;2023-05-21T06:03:18;17.00;99.90
40660;DHT22;26753;45.544;9.232;2023-05-21T06:06:10;17.00;99.90
40660;DHT22;26753;45.544;9.232;2023-05-21T06:08:45;17.10;99.90
40660;DHT22;26753;45.544;9.232;2023-05-21T06:11:13;17.00;99.90
40660;DHT22;26753;45.544;9.232;2023-05-21T06:13:44;17.00;99.90
40660;DHT22;26753;45.544;9.232;2023-05-21T06:16:10;17.10;99.90
40660;DHT22;26753;45.544;9.232;2023-05-21T06:18:56;17.10;99.90
40660;DHT22;26753;45.544;9.232;2023-05-21T06:22:04;17.10;99.90
40660;DHT22;26753;45.544;9.232;2023-05-21T06:24:19;17.00;99.90
40660;DHT22;26753;45.544;9.232;2023-05-21T06:27:05;17.00;99.90
40660;DHT22;26753;45.544;9.232;2023-05-21T06:29:45;17.00;99.90
40660;DHT22;26753;45.544;9.232;2023-05-21T06:32:11;17.00;99.90
40660;DHT22;26753;45.544;9.232;2023-05-21T06:34:45;17.00;99.90
40660;DHT22;26753;45.544;9.232;2023-05-21T06:37:11;17.10;99.90
40660;DHT22;26753;45.544;9.232;2023-05-21T06:39:39;17.00;99.90
40660;DHT22;26753;45.544;9.232;2023-05-21T06:42:05;17.00;99.90
40660;DHT22;26753;45.544;9.232;2023-05-21T06:44:31;17.00;99.90
40660;DHT22;26753;45.544;9.232;2023-05-21T06:46:57;17.00;99.90
40660;DHT22;26753;45.544;9.232;2023-05-21T06:49:22;17.00;99.90
40660;DHT22;26753;45.544;9.232;2023-05-21T06:51:50;17.00;99.90
40660;DHT22;26753;45.544;9.232;2023-05-21T06:54:22;17.10;99.90
40660;DHT22;26753;45.544;9.232;2023-05-21T06:59:32;17.20;99.90
40660;DHT22;26753;45.544;9.232;2023-05-21T07:05:04;17.20;99.90
40660;DHT22;26753;45.544;9.232;2023-05-21T07:07:58;17.30;99.90
40660;DHT22;26753;45.544;9.232;2023-05-21T07:10:29;17.30;99.90
40660;DHT22;26753;45.544;9.232;2023-05-21T07:13:11;17.30;99.90
40660;DHT22;26753;45.544;9.232;2023-05-21T07:15:49;17.40;99.90
40660;DHT22;26753;45.544;9.232;2023-05-21T07:18:18;17.40;99.90
40660;DHT22;26753;45.544;9.232;2023-05-21T07:20:52;17.40;99.90
40660;DHT22;26753;45.544;9.232;2023-05-21T07:23:46;17.40;99.90
40660;DHT22;26753;45.544;9.232;2023-05-21T07:26:35;17.40;99.90
40660;DHT22;26753;45.544;9.232;2023-05-21T07:29:19;17.50;99.90
40660;DHT22;26753;45.544;9.232;2023-05-21T07:31:45;17.50;99.90
40660;DHT22;26753;45.544;9.232;2023-05-21T07:34:11;17.50;99.90
40660;DHT22;26753;45.544;9.232;2023-05-21T07:36:37;17.60;99.90
40660;DHT22;26753;45.544;9.232;2023-05-21T07:39:17;17.60;99.90
40660;DHT22;26753;45.544;9.232;2023-05-21T07:42:02;17.70;99.90
40660;DHT22;26753;45.544;9.232;2023-05-21T07:44:33;17.70;99.90
40660;DHT22;26753;45.544;9.232;2023-05-21T07:47:01;17.80;99.90
40660;DHT22;26753;45.544;9.232;2023-05-21T07:49:27;17.90;99.90
40660;DHT22;26753;45.544;9.232;2023-05-21T07:51:53;18.00;99.90
40660;DHT22;26753;45.544;9.232;2023-05-21T07:54:18;18.20;99.90
40660;DHT22;26753;45.544;9.232;2023-05-21T07:56:47;18.30;99.90
40660;DHT22;26753;45.544;9.232;2023-05-21T07:59:13;18.60;99.90
40660;DHT22;26753;45.544;9.232;2023-05-21T08:01:39;18.60;99.90
40660;DHT22;26753;45.544;9.232;2023-05-21T08:04:05;18.60;99.90
40660;DHT22;26753;45.544;9.232;2023-05-21T08:06:31;18.80;99.90
40660;DHT22;26753;45.544;9.232;2023-05-21T08:09:02;19.60;99.90
40660;DHT22;26753;45.544;9.232;2023-05-21T08:11:27;18.80;99.90
40660;DHT22;26753;45.544;9.232;2023-05-21T08:13:53;19.00;99.90
40660;DHT22;26753;45.544;9.232;2023-05-21T08:16:21;19.20;99.90
40660;DHT22;26753;45.544;9.232;2023-05-21T08:18:52;19.20;99.90
40660;DHT22;26753;45.544;9.232;2023-05-21T08:21:23;19.30;99.90
40660;DHT22;26753;45.544;9.232;2023-05-21T08:23:51;19.40;99.90
40660;DHT22;26753;45.544;9.232;2023-05-21T08:26:16;19.50;99.90
40660;DHT22;26753;45.544;9.232;2023-05-21T08:28:46;19.60;99.90
40660;DHT22;26753;45.544;9.232;2023-05-21T08:31:16;19.80;99.90
40660;DHT22;26753;45.544;9.232;2023-05-21T08:33:48;19.80;99.90
40660;DHT22;26753;45.544;9.232;2023-05-21T08:39:24;19.80;99.90
40660;DHT22;26753;45.544;9.232;2023-05-21T08:41:49;19.70;99.90
40660;DHT22;26753;45.544;9.232;2023-05-21T08:44:19;19.60;99.90
40660;DHT22;26753;45.544;9.232;2023-05-21T08:46:50;19.60;99.90
40660;DHT22;26753;45.544;9.232;2023-05-21T08:49:25;19.40;99.90
40660;DHT22;26753;45.544;9.232;2023-05-21T08:51:54;19.40;99.90
40660;DHT22;26753;45.544;9.232;2023-05-21T08:57:12;19.50;99.90
40660;DHT22;26753;45.544;9.232;2023-05-21T08:59:44;19.40;99.90
40660;DHT22;26753;45.544;9.232;2023-05-21T09:02:18;19.20;99.90
40660;DHT22;26753;45.544;9.232;2023-05-21T09:04:44;19.20;99.90
40660;DHT22;26753;45.544;9.232;2023-05-21T09:07:16;19.40;99.90
40660;DHT22;26753;45.544;9.232;2023-05-21T09:10:25;19.20;99.90
40660;DHT22;26753;45.544;9.232;2023-05-21T09:12:32;19.20;99.90
40660;DHT22;26753;45.544;9.232;2023-05-21T09:14:59;19.20;99.90
40660;DHT22;26753;45.544;9.232;2023-05-21T09:17:25;19.10;99.90
40660;DHT22;26753;45.544;9.232;2023-05-21T09:22:35;19.10;99.90
40660;DHT22;26753;45.544;9.232;2023-05-21T09:25:05;19.20;99.90
40660;DHT22;26753;45.544;9.232;2023-05-21T09:27:34;19.20;99.90
40660;DHT22;26753;45.544;9.232;2023-05-21T09:30:03;19.50;99.90
40660;DHT22;26753;45.544;9.232;2023-05-21T09:32:30;19.60;99.90
40660;DHT22;26753;45.544;9.232;2023-05-21T09:34:56;19.90;99.90
40660;DHT22;26753;45.544;9.232;2023-05-21T09:37:21;20.00;99.90
40660;DHT22;26753;45.544;9.232;2023-05-21T09:39:47;20.20;99.90
40660;DHT22;26753;45.544;9.232;2023-05-21T09:42:13;20.30;99.90
40660;DHT22;26753;45.544;9.232;2023-05-21T09:44:41;20.70;99.90
40660;DHT22;26753;45.544;9.232;2023-05-21T09:47:07;20.80;99.90
40660;DHT22;26753;45.544;9.232;2023-05-21T09:49:35;21.00;99.90
40660;DHT22;26753;45.544;9.232;2023-05-21T09:52:01;21.10;99.90
40660;DHT22;26753;45.544;9.232;2023-05-21T09:54:31;21.20;99.90
40660;DHT22;26753;45.544;9.232;2023-05-21T09:57:00;21.30;99.90
40660;DHT22;26753;45.544;9.232;2023-05-21T09:59:36;21.50;99.90
40660;DHT22;26753;45.544;9.232;2023-05-21T10:02:15;21.60;99.90
40660;DHT22;26753;45.544;9.232;2023-05-21T10:04:42;21.70;99.90
40660;DHT22;26753;45.544;9.232;2023-05-21T10:07:08;21.90;99.90
40660;DHT22;26753;45.544;9.232;2023-05-21T10:09:34;22.00;99.90
40660;DHT22;26753;45.544;9.232;2023-05-21T10:12:00;22.10;99.90
40660;DHT22;26753;45.544;9.232;2023-05-21T10:14:26;22.20;99.90
40660;DHT22;26753;45.544;9.232;2023-05-21T10:16:56;22.30;99.90
40660;DHT22;26753;45.544;9.232;2023-05-21T10:19:21;22.40;99.90
40660;DHT22;26753;45.544;9.232;2023-05-21T10:21:48;22.50;99.90
40660;DHT22;26753;45.544;9.232;2023-05-21T10:24:14;22.80;99.90
40660;DHT22;26753;45.544;9.232;2023-05-21T10:26:40;23.00;99.90
40660;DHT22;26753;45.544;9.232;2023-05-21T10:29:07;23.10;99.90
40660;DHT22;26753;45.544;9.232;2023-05-21T10:34:27;23.30;99.90
40660;DHT22;26753;45.544;9.232;2023-05-21T10:36:53;23.40;99.90
40660;DHT22;26753;45.544;9.232;2023-05-21T10:39:21;23.40;99.90
40660;DHT22;26753;45.544;9.232;2023-05-21T10:41:50;23.50;99.90
40660;DHT22;26753;45.544;9.232;2023-05-21T10:54:50;24.00;99.90
40660;DHT22;26753;45.544;9.232;2023-05-21T11:00:10;24.30;99.90
40660;DHT22;26753;45.544;9.232;2023-05-21T11:02:37;24.50;99.90
40660;DHT22;26753;45.544;9.232;2023-05-21T11:05:03;24.50;99.90
40660;DHT22;26753;45.544;9.232;2023-05-21T11:10:30;24.70;99.90
40660;DHT22;26753;45.544;9.232;2023-05-21T11:15:30;24.80;99.90
40660;DHT22;26753;45.544;9.232;2023-05-21T11:18:17;25.00;99.90
40660;DHT22;26753;45.544;9.232;2023-05-21T11:20:43;25.50;99.90
40660;DHT22;26753;45.544;9.232;2023-05-21T11:23:14;25.70;99.90
40660;DHT22;26753;45.544;9.232;2023-05-21T11:25:40;25.80;99.90
40660;DHT22;26753;45.544;9.232;2023-05-21T11:28:06;26.10;99.90
40660;DHT22;26753;45.544;9.232;2023-05-21T11:30:33;26.10;99.90
40660;DHT22;26753;45.544;9.232;2023-05-21T11:38:15;26.20;99.90
40660;DHT22;26753;45.544;9.232;2023-05-21T11:40:51;26.30;99.90
40660;DHT22;26753;45.544;9.232;2023-05-21T11:43:19;26.30;99.90
40660;DHT22;26753;45.544;9.232;2023-05-21T11:45:45;26.40;99.90
40660;DHT22;26753;45.544;9.232;2023-05-21T11:48:14;26.70;99.90
40660;DHT22;26753;45.544;9.232;2023-05-21T11:50:40;26.70;99.90
40660;DHT22;26753;45.544;9.232;2023-05-21T11:53:09;26.70;99.90
40660;DHT22;26753;45.544;9.232;2023-05-21T11:55:37;26.60;99.90
40660;DHT22;26753;45.544;9.232;2023-05-21T11:58:04;26.70;99.90
40660;DHT22;26753;45.544;9.232;2023-05-21T12:00:36;26.90;99.90
40660;DHT22;26753;45.544;9.232;2023-05-21T12:03:02;26.90;99.90
40660;DHT22;26753;45.544;9.232;2023-05-21T12:05:32;26.90;99.90
40660;DHT22;26753;45.544;9.232;2023-05-21T12:08:08;26.90;99.90
40660;DHT22;26753;45.544;9.232;2023-05-21T12:10:36;27.00;99.90
40660;DHT22;26753;45.544;9.232;2023-05-21T12:13:03;27.20;99.90
40660;DHT22;26753;45.544;9.232;2023-05-21T12:15:30;27.30;99.90
40660;DHT22;26753;45.544;9.232;2023-05-21T12:17:56;27.50;99.90
40660;DHT22;26753;45.544;9.232;2023-05-21T12:20:24;27.70;99.90
40660;DHT22;26753;45.544;9.232;2023-05-21T12:22:50;27.90;99.90
40660;DHT22;26753;45.544;9.232;2023-05-21T12:25:17;28.40;99.90
40660;DHT22;26753;45.544;9.232;2023-05-21T12:27:44;28.90;99.90
40660;DHT22;26753;45.544;9.232;2023-05-21T12:30:11;29.20;99.90
40660;DHT22;26753;45.544;9.232;2023-05-21T12:32:45;28.90;99.90
40660;DHT22;26753;45.544;9.232;2023-05-21T12:35:25;28.70;99.90
40660;DHT22;26753;45.544;9.232;2023-05-21T12:37:51;28.70;99.90
40660;DHT22;26753;45.544;9.232;2023-05-21T12:40:17;28.60;99.90
40660;DHT22;26753;45.544;9.232;2023-05-21T12:42:43;28.50;99.90
40660;DHT22;26753;45.544;9.232;2023-05-21T12:45:12;28.20;99.90
40660;DHT22;26753;45.544;9.232;2023-05-21T12:47:47;28.30;99.90
40660;DHT22;26753;45.544;9.232;2023-05-21T12:50:26;28.60;99.90
40660;DHT22;26753;45.544;9.232;2023-05-21T12:52:56;28.90;99.00
40660;DHT22;26753;45.544;9.232;2023-05-21T12:55:22;29.50;98.60
40660;DHT22;26753;45.544;9.232;2023-05-21T12:57:49;30.00;98.10
40660;DHT22;26753;45.544;9.232;2023-05-21T13:00:16;30.40;98.10
40660;DHT22;26753;45.544;9.232;2023-05-21T13:02:50;30.50;96.80
40660;DHT22;26753;45.544;9.232;2023-05-21T13:05:16;30.10;95.20
40660;DHT22;26753;45.544;9.232;2023-05-21T13:07:42;30.00;94.60
40660;DHT22;26753;45.544;9.232;2023-05-21T13:10:11;29.90;94.50
40660;DHT22;26753;45.544;9.232;2023-05-21T13:12:37;30.00;93.00
40660;DHT22;26753;45.544;9.232;2023-05-21T13:15:03;30.00;93.00
40660;DHT22;26753;45.544;9.232;2023-05-21T13:17:32;30.40;94.30
40660;DHT22;26753;45.544;9.232;2023-05-21T13:20:19;30.90;92.60
40660;DHT22;26753;45.544;9.232;2023-05-21T13:22:46;31.10;91.90
40660;DHT22;26753;45.544;9.232;2023-05-21T13:25:13;31.10;91.10
40660;DHT22;26753;45.544;9.232;2023-05-21T13:27:43;31.10;91.10
40660;DHT22;26753;45.544;9.232;2023-05-21T13:30:09;31.30;90.90
40660;DHT22;26753;45.544;9.232;2023-05-21T13:32:36;31.10;90.60
40660;DHT22;26753;45.544;9.232;2023-05-21T13:35:02;31.10;90.70
40660;DHT22;26753;45.544;9.232;2023-05-21T13:37:30;31.00;89.80
40660;DHT22;26753;45.544;9.232;2023-05-21T13:39:56;30.70;89.20
40660;DHT22;26753;45.544;9.232;2023-05-21T13:42:21;30.50;90.00
40660;DHT22;26753;45.544;9.232;2023-05-21T13:44:47;30.60;89.30
40660;DHT22;26753;45.544;9.232;2023-05-21T13:47:16;30.90;90.10
40660;DHT22;26753;45.544;9.232;2023-05-21T13:49:41;31.30;90.80
40660;DHT22;26753;45.544;9.232;2023-05-21T13:52:07;31.50;90.40
40660;DHT22;26753;45.544;9.232;2023-05-21T13:54:36;31.70;89.60
40660;DHT22;26753;45.544;9.232;2023-05-21T13:57:02;31.90;87.50
40660;DHT22;26753;45.544;9.232;2023-05-21T13:59:27;32.00;86.80
40660;DHT22;26753;45.544;9.232;2023-05-21T14:01:56;31.90;86.60
40660;DHT22;26753;45.544;9.232;2023-05-21T14:04:22;31.60;86.20
40660;DHT22;26753;45.544;9.232;2023-05-21T14:06:48;31.60;87.10
40660;DHT22;26753;45.544;9.232;2023-05-21T14:09:14;31.70;86.80
40660;DHT22;26753;45.544;9.232;2023-05-21T14:11:40;31.70;87.50
40660;DHT22;26753;45.544;9.232;2023-05-21T14:14:05;31.70;87.20
40660;DHT22;26753;45.544;9.232;2023-05-21T14:16:31;31.70;85.10
40660;DHT22;26753;45.544;9.232;2023-05-21T14:18:57;32.10;85.10
40660;DHT22;26753;45.544;9.232;2023-05-21T14:21:23;32.30;85.80
40660;DHT22;26753;45.544;9.232;2023-05-21T14:23:48;32.60;84.30
40660;DHT22;26753;45.544;9.232;2023-05-21T14:26:14;32.50;83.20
40660;DHT22;26753;45.544;9.232;2023-05-21T14:28:41;32.60;83.40
40660;DHT22;26753;45.544;9.232;2023-05-21T14:31:09;33.30;81.70
40660;DHT22;26753;45.544;9.232;2023-05-21T14:33:35;34.80;80.50
40660;DHT22;26753;45.544;9.232;2023-05-21T14:36:01;36.90;79.30
40660;DHT22;26753;45.544;9.232;2023-05-21T14:38:27;38.30;76.80
40660;DHT22;26753;45.544;9.232;2023-05-21T14:40:53;38.30;71.40
40660;DHT22;26753;45.544;9.232;2023-05-21T14:43:19;39.90;71.10
40660;DHT22;26753;45.544;9.232;2023-05-21T14:45:50;42.10;67.00
40660;DHT22;26753;45.544;9.232;2023-05-21T14:48:16;42.30;64.10
40660;DHT22;26753;45.544;9.232;2023-05-21T14:50:43;42.50;63.40
40660;DHT22;26753;45.544;9.232;2023-05-21T14:53:09;41.60;61.80
40660;DHT22;26753;45.544;9.232;2023-05-21T14:55:35;41.90;62.00
40660;DHT22;26753;45.544;9.232;2023-05-21T14:58:04;43.20;62.10
40660;DHT22;26753;45.544;9.232;2023-05-21T15:00:33;43.40;60.80
40660;DHT22;26753;45.544;9.232;2023-05-21T15:02:59;42.40;60.60
40660;DHT22;26753;45.544;9.232;2023-05-21T15:05:25;42.40;61.20
40660;DHT22;26753;45.544;9.232;2023-05-21T15:07:52;43.30;60.20
40660;DHT22;26753;45.544;9.232;2023-05-21T15:10:20;43.30;60.20
40660;DHT22;26753;45.544;9.232;2023-05-21T15:12:47;43.70;60.10
40660;DHT22;26753;45.544;9.232;2023-05-21T15:15:16;43.40;58.40
40660;DHT22;26753;45.544;9.232;2023-05-21T15:17:42;43.70;58.50
40660;DHT22;26753;45.544;9.232;2023-05-21T15:20:08;44.40;58.60
40660;DHT22;26753;45.544;9.232;2023-05-21T15:22:34;44.00;57.90
40660;DHT22;26753;45.544;9.232;2023-05-21T15:25:00;43.90;56.90
40660;DHT22;26753;45.544;9.232;2023-05-21T15:27:26;43.10;55.80
40660;DHT22;26753;45.544;9.232;2023-05-21T15:29:54;44.50;57.40
40660;DHT22;26753;45.544;9.232;2023-05-21T15:32:20;45.90;56.70
40660;DHT22;26753;45.544;9.232;2023-05-21T15:37:28;45.40;54.60
40660;DHT22;26753;45.544;9.232;2023-05-21T15:39:59;45.40;54.10
40660;DHT22;26753;45.544;9.232;2023-05-21T15:42:25;44.60;53.70
40660;DHT22;26753;45.544;9.232;2023-05-21T15:44:50;43.80;55.10
40660;DHT22;26753;45.544;9.232;2023-05-21T15:47:19;43.40;54.00
40660;DHT22;26753;45.544;9.232;2023-05-21T15:49:44;42.60;54.80
40660;DHT22;26753;45.544;9.232;2023-05-21T15:52:13;42.10;55.70
40660;DHT22;26753;45.544;9.232;2023-05-21T15:54:55;41.80;54.70
40660;DHT22;26753;45.544;9.232;2023-05-21T15:57:24;41.20;55.00
40660;DHT22;26753;45.544;9.232;2023-05-21T15:59:49;41.70;55.10
40660;DHT22;26753;45.544;9.232;2023-05-21T16:02:16;41.70;55.20
40660;DHT22;26753;45.544;9.232;2023-05-21T16:04:48;41.40;55.10
40660;DHT22;26753;45.544;9.232;2023-05-21T16:07:17;41.50;55.00
40660;DHT22;26753;45.544;9.232;2023-05-21T16:09:56;41.50;55.00
40660;DHT22;26753;45.544;9.232;2023-05-21T16:12:21;41.40;55.40
40660;DHT22;26753;45.544;9.232;2023-05-21T16:14:52;41.40;55.10
40660;DHT22;26753;45.544;9.232;2023-05-21T16:17:18;41.40;55.20
40660;DHT22;26753;45.544;9.232;2023-05-21T16:19:44;41.40;55.20
40660;DHT22;26753;45.544;9.232;2023-05-21T16:22:12;41.40;55.30
40660;DHT22;26753;45.544;9.232;2023-05-21T16:24:41;41.20;55.40
40660;DHT22;26753;45.544;9.232;2023-05-21T16:27:06;40.80;55.50
40660;DHT22;26753;45.544;9.232;2023-05-21T16:29:32;40.70;55.80
40660;DHT22;26753;45.544;9.232;2023-05-21T16:31:58;40.40;56.40
40660;DHT22;26753;45.544;9.232;2023-05-21T16:34:23;39.90;56.70
40660;DHT22;26753;45.544;9.232;2023-05-21T16:36:49;39.00;57.70
40660;DHT22;26753;45.544;9.232;2023-05-21T16:39:15;37.50;59.40
40660;DHT22;26753;45.544;9.232;2023-05-21T16:41:41;36.10;61.10
40660;DHT22;26753;45.544;9.232;2023-05-21T16:44:07;34.70;62.80
40660;DHT22;26753;45.544;9.232;2023-05-21T16:46:32;34.20;64.00
40660;DHT22;26753;45.544;9.232;2023-05-21T16:48:58;33.80;64.90
40660;DHT22;26753;45.544;9.232;2023-05-21T16:51:24;33.60;65.50
40660;DHT22;26753;45.544;9.232;2023-05-21T16:53:49;34.40;65.00
40660;DHT22;26753;45.544;9.232;2023-05-21T16:56:15;35.20;64.50
40660;DHT22;26753;45.544;9.232;2023-05-21T16:58:41;35.20;64.10
40660;DHT22;26753;45.544;9.232;2023-05-21T17:01:06;35.30;64.00
40660;DHT22;26753;45.544;9.232;2023-05-21T17:03:32;35.50;64.00
40660;DHT22;26753;45.544;9.232;2023-05-21T17:05:58;35.00;63.90
40660;DHT22;26753;45.544;9.232;2023-05-21T17:08:23;34.30;64.00
40660;DHT22;26753;45.544;9.232;2023-05-21T17:10:49;33.80;64.70
40660;DHT22;26753;45.544;9.232;2023-05-21T17:13:15;33.80;65.00
40660;DHT22;26753;45.544;9.232;2023-05-21T17:15:40;33.80;65.20
40660;DHT22;26753;45.544;9.232;2023-05-21T17:18:06;33.80;65.30
40660;DHT22;26753;45.544;9.232;2023-05-21T17:20:31;33.20;65.60
40660;DHT22;26753;45.544;9.232;2023-05-21T17:22:57;32.50;66.10